sensor_id;sensor_type;location;lat;lon;timestamp;pressure;altitude;pressure_sealevel;temperature;humidity
32875;BME280;40468;42.128;24.750;2023-02-18T00:00:55;100408.28;;;8.39;38.28
32875;BME280;40468;42.128;24.750;2023-02-18T00:02:27;100408.28;;;8.39;38.25
32875;BME280;40468;42.128;24.750;2023-02-18T00:03:59;100411.75;;;8.38;38.15
32875;BME280;40468;42.128;24.750;2023-02-18T00:05:31;100407.44;;;8.38;38.20
32875;BME280;40468;42.128;24.750;2023-02-18T00:07:03;100409.16;;;8.36;38.12
32875;BME280;40468;42.128;24.750;2023-02-18T00:08:34;100408.28;;;8.37;38.20
32875;BME280;40468;42.128;24.750;2023-02-18T00:10:07;100408.28;;;8.39;37.89
32875;BME280;40468;42.128;24.750;2023-02-18T00:11:39;100412.56;;;8.40;37.90
32875;BME280;40468;42.128;24.750;2023-02-18T00:13:10;100403.06;;;8.40;38.03
32875;BME280;40468;42.128;24.750;2023-02-18T00:14:41;100406.53;;;8.39;37.78
32875;BME280;40468;42.128;24.750;2023-02-18T00:16:14;100405.66;;;8.40;37.83
32875;BME280;40468;42.128;24.750;2023-02-18T00:17:45;100402.25;;;8.38;37.87
32875;BME280;40468;42.128;24.750;2023-02-18T00:19:17;100399.59;;;8.40;37.74
32875;BME280;40468;42.128;24.750;2023-02-18T00:20:49;100396.97;;;8.41;37.89
32875;BME280;40468;42.128;24.750;2023-02-18T00:22:20;100395.28;;;8.40;37.65
32875;BME280;40468;42.128;24.750;2023-02-18T00:23:52;100396.97;;;8.41;37.85
32875;BME280;40468;42.128;24.750;2023-02-18T00:25:23;100396.97;;;8.41;37.94
32875;BME280;40468;42.128;24.750;2023-02-18T00:26:54;100388.34;;;8.41;37.75
32875;BME280;40468;42.128;24.750;2023-02-18T00:28:26;100392.69;;;8.40;38.04
32875;BME280;40468;42.128;24.750;2023-02-18T00:29:57;100393.53;;;8.41;37.85
32875;BME280;40468;42.128;24.750;2023-02-18T00:31:30;100394.41;;;8.40;37.92
32875;BME280;40468;42.128;24.750;2023-02-18T00:33:01;100388.34;;;8.39;37.74
32875;BME280;40468;42.128;24.750;2023-02-18T00:34:33;100386.59;;;8.40;37.92
32875;BME280;40468;42.128;24.750;2023-02-18T00:36:05;100384.00;;;8.41;37.73
32875;BME280;40468;42.128;24.750;2023-02-18T00:37:37;100381.38;;;8.41;37.81
32875;BME280;40468;42.128;24.750;2023-02-18T00:39:09;100377.13;;;8.39;37.88
32875;BME280;40468;42.128;24.750;2023-02-18T00:40:41;100375.44;;;8.36;37.92
32875;BME280;40468;42.128;24.750;2023-02-18T00:42:13;100369.44;;;8.34;37.84
32875;BME280;40468;42.128;24.750;2023-02-18T00:43:45;100376.34;;;8.34;37.90
32875;BME280;40468;42.128;24.750;2023-02-18T00:45:17;100370.38;;;8.32;37.93
32875;BME280;40468;42.128;24.750;2023-02-18T00:46:50;100365.28;;;8.29;38.07
32875;BME280;40468;42.128;24.750;2023-02-18T00:48:22;100365.19;;;8.32;38.31
32875;BME280;40468;42.128;24.750;2023-02-18T00:49:54;100359.16;;;8.31;38.15
32875;BME280;40468;42.128;24.750;2023-02-18T00:51:25;100360.94;;;8.29;37.97
32875;BME280;40468;42.128;24.750;2023-02-18T00:52:57;100356.66;;;8.28;38.10
32875;BME280;40468;42.128;24.750;2023-02-18T00:54:28;100357.50;;;8.27;38.07
32875;BME280;40468;42.128;24.750;2023-02-18T00:56:00;100352.31;;;8.27;38.23
32875;BME280;40468;42.128;24.750;2023-02-18T00:57:31;100353.19;;;8.28;38.25
32875;BME280;40468;42.128;24.750;2023-02-18T00:59:03;100348.03;;;8.26;38.23
32875;BME280;40468;42.128;24.750;2023-02-18T01:00:34;100341.09;;;8.27;38.07
32875;BME280;40468;42.128;24.750;2023-02-18T01:02:08;100344.53;;;8.27;38.28
32875;BME280;40468;42.128;24.750;2023-02-18T01:03:40;100347.13;;;8.27;38.10
32875;BME280;40468;42.128;24.750;2023-02-18T01:05:12;100336.75;;;8.27;38.20
32875;BME280;40468;42.128;24.750;2023-02-18T01:06:43;100341.09;;;8.27;38.32
32875;BME280;40468;42.128;24.750;2023-02-18T01:08:16;100329.81;;;8.28;38.17
32875;BME280;40468;42.128;24.750;2023-02-18T01:09:47;100331.56;;;8.27;38.23
32875;BME280;40468;42.128;24.750;2023-02-18T01:11:18;100328.13;;;8.27;38.17
32875;BME280;40468;42.128;24.750;2023-02-18T01:12:50;100326.38;;;8.27;38.16
32875;BME280;40468;42.128;24.750;2023-02-18T01:14:22;100322.00;;;8.29;38.17
32875;BME280;40468;42.128;24.750;2023-02-18T01:15:53;100320.31;;;8.28;38.13
32875;BME280;40468;42.128;24.750;2023-02-18T01:17:25;100316.81;;;8.29;38.15
32875;BME280;40468;42.128;24.750;2023-02-18T01:18:57;100321.94;;;8.31;38.08
32875;BME280;40468;42.128;24.750;2023-02-18T01:20:28;100318.50;;;8.30;38.15
32875;BME280;40468;42.128;24.750;2023-02-18T01:22:00;100317.72;;;8.28;38.30
32875;BME280;40468;42.128;24.750;2023-02-18T01:23:32;100317.72;;;8.28;38.19
32875;BME280;40468;42.128;24.750;2023-02-18T01:25:03;100316.84;;;8.28;38.40
32875;BME280;40468;42.128;24.750;2023-02-18T01:26:35;100320.38;;;8.25;38.32
32875;BME280;40468;42.128;24.750;2023-02-18T01:28:07;100310.91;;;8.24;38.47
32875;BME280;40468;42.128;24.750;2023-02-18T01:29:38;100309.16;;;8.25;38.31
32875;BME280;40468;42.128;24.750;2023-02-18T01:31:11;100312.59;;;8.25;38.47
32875;BME280;40468;42.128;24.750;2023-02-18T01:32:44;100312.59;;;8.25;38.25
32875;BME280;40468;42.128;24.750;2023-02-18T01:34:15;100304.03;;;8.23;38.42
32875;BME280;40468;42.128;24.750;2023-02-18T01:35:47;100303.16;;;8.23;38.20
32875;BME280;40468;42.128;24.750;2023-02-18T01:37:17;100301.44;;;8.21;38.34
32875;BME280;40468;42.128;24.750;2023-02-18T01:38:49;100302.38;;;8.19;38.44
32875;BME280;40468;42.128;24.750;2023-02-18T01:40:23;100300.69;;;8.18;38.42
32875;BME280;40468;42.128;24.750;2023-02-18T01:41:54;100302.47;;;8.16;38.35
32875;BME280;40468;42.128;24.750;2023-02-18T01:43:25;100299.03;;;8.15;38.31
32875;BME280;40468;42.128;24.750;2023-02-18T01:46:43;100294.06;;;8.08;38.53
32875;BME280;40468;42.128;24.750;2023-02-18T01:48:18;100292.47;;;8.02;38.68
32875;BME280;40468;42.128;24.750;2023-02-18T01:49:49;100288.13;;;8.03;38.58
32875;BME280;40468;42.128;24.750;2023-02-18T01:51:23;100290.72;;;8.03;38.47
32875;BME280;40468;42.128;24.750;2023-02-18T01:52:56;100290.84;;;7.98;38.74
32875;BME280;40468;42.128;24.750;2023-02-18T01:54:29;100290.91;;;7.96;38.76
32875;BME280;40468;42.128;24.750;2023-02-18T01:56:02;100289.22;;;7.94;38.90
32875;BME280;40468;42.128;24.750;2023-02-18T01:57:36;100296.16;;;7.93;38.75
32875;BME280;40468;42.128;24.750;2023-02-18T01:59:10;100294.44;;;7.92;38.94
32875;BME280;40468;42.128;24.750;2023-02-18T02:00:43;100297.94;;;7.91;38.72
32875;BME280;40468;42.128;24.750;2023-02-18T02:02:14;100291.06;;;7.90;38.87
32875;BME280;40468;42.128;24.750;2023-02-18T02:03:49;100291.16;;;7.87;38.76
32875;BME280;40468;42.128;24.750;2023-02-18T02:05:20;100284.31;;;7.83;38.89
32875;BME280;40468;42.128;24.750;2023-02-18T02:06:52;100286.91;;;7.83;38.90
32875;BME280;40468;42.128;24.750;2023-02-18T02:08:23;100286.13;;;7.81;38.96
32875;BME280;40468;42.128;24.750;2023-02-18T02:09:55;100287.06;;;7.79;39.01
32875;BME280;40468;42.128;24.750;2023-02-18T02:11:31;100286.22;;;7.77;39.12
32875;BME280;40468;42.128;24.750;2023-02-18T02:13:06;100282.94;;;7.70;39.22
32875;BME280;40468;42.128;24.750;2023-02-18T02:14:46;100289.97;;;7.65;39.32
32875;BME280;40468;42.128;24.750;2023-02-18T02:16:21;100290.06;;;7.62;39.57
32875;BME280;40468;42.128;24.750;2023-02-18T02:18:03;100295.31;;;7.59;39.51
32875;BME280;40468;42.128;24.750;2023-02-18T02:20:00;100294.47;;;7.58;39.57
32875;BME280;40468;42.128;24.750;2023-02-18T02:21:52;100299.75;;;7.55;39.44
32875;BME280;40468;42.128;24.750;2023-02-18T02:23:33;100306.66;;;7.55;39.72
32875;BME280;40468;42.128;24.750;2023-02-18T02:25:14;100316.16;;;7.54;39.46
32875;BME280;40468;42.128;24.750;2023-02-18T02:26:59;100308.44;;;7.52;39.64
32875;BME280;40468;42.128;24.750;2023-02-18T02:30:29;100310.34;;;7.46;39.68
32875;BME280;40468;42.128;24.750;2023-02-18T02:32:19;100303.47;;;7.43;39.77
32875;BME280;40468;42.128;24.750;2023-02-18T02:35:51;100304.50;;;7.36;39.87
32875;BME280;40468;42.128;24.750;2023-02-18T02:37:26;100299.38;;;7.35;40.03
32875;BME280;40468;42.128;24.750;2023-02-18T02:39:02;100296.84;;;7.32;40.05
32875;BME280;40468;42.128;24.750;2023-02-18T02:40:40;100300.38;;;7.29;40.09
32875;BME280;40468;42.128;24.750;2023-02-18T02:42:18;100302.94;;;7.29;40.01
32875;BME280;40468;42.128;24.750;2023-02-18T02:43:55;100304.78;;;7.25;40.21
32875;BME280;40468;42.128;24.750;2023-02-18T02:45:36;100306.53;;;7.23;40.39
32875;BME280;40468;42.128;24.750;2023-02-18T02:47:13;100314.44;;;7.19;40.56
32875;BME280;40468;42.128;24.750;2023-02-18T02:48:47;100302.41;;;7.16;40.67
32875;BME280;40468;42.128;24.750;2023-02-18T02:50:23;100313.63;;;7.15;40.68
32875;BME280;40468;42.128;24.750;2023-02-18T02:51:59;100315.44;;;7.12;40.82
32875;BME280;40468;42.128;24.750;2023-02-18T02:53:35;100309.41;;;7.11;40.71
32875;BME280;40468;42.128;24.750;2023-02-18T02:55:07;100318.03;;;7.12;40.85
32875;BME280;40468;42.128;24.750;2023-02-18T02:56:38;100313.69;;;7.14;40.84
32875;BME280;40468;42.128;24.750;2023-02-18T02:58:11;100319.69;;;7.14;40.64
32875;BME280;40468;42.128;24.750;2023-02-18T02:59:45;100319.72;;;7.13;40.90
32875;BME280;40468;42.128;24.750;2023-02-18T03:01:25;100307.66;;;7.13;40.89
32875;BME280;40468;42.128;24.750;2023-02-18T03:04:55;100305.84;;;7.15;40.83
32875;BME280;40468;42.128;24.750;2023-02-18T03:06:40;100318.78;;;7.17;40.70
32875;BME280;40468;42.128;24.750;2023-02-18T03:08:18;100308.44;;;7.17;40.68
32875;BME280;40468;42.128;24.750;2023-02-18T03:10:00;100302.41;;;7.16;40.90
32875;BME280;40468;42.128;24.750;2023-02-18T03:11:38;100298.91;;;7.17;40.73
32875;BME280;40468;42.128;24.750;2023-02-18T03:13:15;100297.16;;;7.18;40.77
32875;BME280;40468;42.128;24.750;2023-02-18T03:14:50;100295.41;;;7.20;40.75
32875;BME280;40468;42.128;24.750;2023-02-18T03:16:26;100295.34;;;7.21;40.71
32875;BME280;40468;42.128;24.750;2023-02-18T03:17:57;100285.88;;;7.22;40.68
32875;BME280;40468;42.128;24.750;2023-02-18T03:19:32;100291.84;;;7.24;40.71
32875;BME280;40468;42.128;24.750;2023-02-18T03:21:07;100288.38;;;7.25;40.73
32875;BME280;40468;42.128;24.750;2023-02-18T03:22:43;100284.84;;;7.27;40.49
32875;BME280;40468;42.128;24.750;2023-02-18T03:24:19;100280.53;;;7.28;40.39
32875;BME280;40468;42.128;24.750;2023-02-18T03:25:54;100277.88;;;7.31;40.25
32875;BME280;40468;42.128;24.750;2023-02-18T03:27:27;100273.47;;;7.33;40.29
32875;BME280;40468;42.128;24.750;2023-02-18T03:29:02;100271.72;;;7.35;40.23
32875;BME280;40468;42.128;24.750;2023-02-18T03:30:36;100281.19;;;7.36;40.23
32875;BME280;40468;42.128;24.750;2023-02-18T03:32:11;100279.41;;;7.38;40.22
32875;BME280;40468;42.128;24.750;2023-02-18T03:33:45;100280.25;;;7.39;40.26
32875;BME280;40468;42.128;24.750;2023-02-18T03:35:19;100279.38;;;7.40;40.07
32875;BME280;40468;42.128;24.750;2023-02-18T03:36:51;100278.50;;;7.39;40.20
32875;BME280;40468;42.128;24.750;2023-02-18T03:38:23;100281.94;;;7.41;39.92
32875;BME280;40468;42.128;24.750;2023-02-18T03:39:57;100278.44;;;7.42;39.94
32875;BME280;40468;42.128;24.750;2023-02-18T03:41:30;100281.94;;;7.41;40.03
32875;BME280;40468;42.128;24.750;2023-02-18T03:43:01;100275.00;;;7.42;40.11
32875;BME280;40468;42.128;24.750;2023-02-18T03:44:33;100280.16;;;7.43;40.08
32875;BME280;40468;42.128;24.750;2023-02-18T03:46:05;100293.06;;;7.45;40.05
32875;BME280;40468;42.128;24.750;2023-02-18T03:47:36;100280.09;;;7.46;39.81
32875;BME280;40468;42.128;24.750;2023-02-18T03:49:08;100284.34;;;7.49;39.88
32875;BME280;40468;42.128;24.750;2023-02-18T03:50:40;100287.69;;;7.52;39.82
32875;BME280;40468;42.128;24.750;2023-02-18T03:52:11;100286.72;;;7.57;39.84
32875;BME280;40468;42.128;24.750;2023-02-18T03:53:43;100290.97;;;7.59;39.77
32875;BME280;40468;42.128;24.750;2023-02-18T03:55:16;100296.16;;;7.61;39.60
32875;BME280;40468;42.128;24.750;2023-02-18T03:56:48;100296.94;;;7.63;39.47
32875;BME280;40468;42.128;24.750;2023-02-18T03:58:19;100297.75;;;7.66;39.53
32875;BME280;40468;42.128;24.750;2023-02-18T03:59:51;100301.03;;;7.71;39.46
32875;BME280;40468;42.128;24.750;2023-02-18T04:01:23;100302.69;;;7.75;39.35
32875;BME280;40468;42.128;24.750;2023-02-18T04:02:54;100313.81;;;7.79;39.17
32875;BME280;40468;42.128;24.750;2023-02-18T04:04:25;100309.41;;;7.83;39.14
32875;BME280;40468;42.128;24.750;2023-02-18T04:05:57;100318.84;;;7.85;39.11
32875;BME280;40468;42.128;24.750;2023-02-18T04:07:28;100301.53;;;7.87;39.04
32875;BME280;40468;42.128;24.750;2023-02-18T04:08:59;100312.69;;;7.89;38.98
32875;BME280;40468;42.128;24.750;2023-02-18T04:10:33;100307.47;;;7.91;38.96
32875;BME280;40468;42.128;24.750;2023-02-18T04:12:05;100308.28;;;7.93;39.09
32875;BME280;40468;42.128;24.750;2023-02-18T04:13:36;100313.47;;;7.93;38.95
32875;BME280;40468;42.128;24.750;2023-02-18T04:15:08;100311.72;;;7.93;38.97
32875;BME280;40468;42.128;24.750;2023-02-18T04:16:40;100309.13;;;7.93;39.02
32875;BME280;40468;42.128;24.750;2023-02-18T04:18:11;100317.75;;;7.94;39.25
32875;BME280;40468;42.128;24.750;2023-02-18T04:19:43;100313.41;;;7.94;39.02
32875;BME280;40468;42.128;24.750;2023-02-18T04:21:14;100316.00;;;7.94;39.09
32875;BME280;40468;42.128;24.750;2023-02-18T04:22:45;100312.50;;;7.95;38.99
32875;BME280;40468;42.128;24.750;2023-02-18T04:24:17;100319.44;;;7.96;38.92
32875;BME280;40468;42.128;24.750;2023-02-18T04:25:50;100322.81;;;7.98;38.84
32875;BME280;40468;42.128;24.750;2023-02-18T04:27:23;100330.53;;;8.02;39.00
32875;BME280;40468;42.128;24.750;2023-02-18T04:28:55;100325.28;;;8.03;38.94
32875;BME280;40468;42.128;24.750;2023-02-18T04:30:26;100326.13;;;8.05;38.73
32875;BME280;40468;42.128;24.750;2023-02-18T04:31:57;100326.03;;;8.08;38.84
32875;BME280;40468;42.128;24.750;2023-02-18T04:33:28;100322.50;;;8.11;38.59
32875;BME280;40468;42.128;24.750;2023-02-18T04:35:00;100325.06;;;8.12;38.53
32875;BME280;40468;42.128;24.750;2023-02-18T04:36:32;100327.53;;;8.17;38.48
32875;BME280;40468;42.128;24.750;2023-02-18T04:38:04;100330.03;;;8.20;38.44
32875;BME280;40468;42.128;24.750;2023-02-18T04:39:36;100329.97;;;8.23;38.37
32875;BME280;40468;42.128;24.750;2023-02-18T04:41:09;100335.94;;;8.25;38.54
32875;BME280;40468;42.128;24.750;2023-02-18T04:42:41;100336.75;;;8.27;38.34
32875;BME280;40468;42.128;24.750;2023-02-18T04:44:13;100347.13;;;8.29;38.47
32875;BME280;40468;42.128;24.750;2023-02-18T04:45:45;100346.22;;;8.30;38.57
32875;BME280;40468;42.128;24.750;2023-02-18T04:47:16;100336.69;;;8.30;38.41
32875;BME280;40468;42.128;24.750;2023-02-18T04:48:48;100336.66;;;8.32;38.20
32875;BME280;40468;42.128;24.750;2023-02-18T04:50:20;100334.00;;;8.33;38.18
32875;BME280;40468;42.128;24.750;2023-02-18T04:51:52;100330.47;;;8.36;38.27
32875;BME280;40468;42.128;24.750;2023-02-18T04:53:23;100333.03;;;8.37;38.16
32875;BME280;40468;42.128;24.750;2023-02-18T04:54:55;100334.75;;;8.37;38.09
32875;BME280;40468;42.128;24.750;2023-02-18T04:56:28;100329.56;;;8.38;38.27
32875;BME280;40468;42.128;24.750;2023-02-18T04:58:00;100330.41;;;8.39;38.16
32875;BME280;40468;42.128;24.750;2023-02-18T04:59:31;100324.28;;;8.41;38.12
32875;BME280;40468;42.128;24.750;2023-02-18T05:01:02;100326.88;;;8.41;38.04
32875;BME280;40468;42.128;24.750;2023-02-18T05:02:34;100332.09;;;8.41;38.13
32875;BME280;40468;42.128;24.750;2023-02-18T05:04:06;100324.28;;;8.41;38.01
32875;BME280;40468;42.128;24.750;2023-02-18T05:05:38;100332.00;;;8.45;38.02
32875;BME280;40468;42.128;24.750;2023-02-18T05:07:08;100331.09;;;8.46;38.10
32875;BME280;40468;42.128;24.750;2023-02-18T05:08:40;100337.91;;;8.50;38.04
32875;BME280;40468;42.128;24.750;2023-02-18T05:10:14;100327.44;;;8.53;37.77
32875;BME280;40468;42.128;24.750;2023-02-18T05:11:46;100332.56;;;8.56;37.91
32875;BME280;40468;42.128;24.750;2023-02-18T05:13:18;100330.78;;;8.58;37.92
32875;BME280;40468;42.128;24.750;2023-02-18T05:14:50;100331.56;;;8.60;37.67
32875;BME280;40468;42.128;24.750;2023-02-18T05:16:21;100334.06;;;8.63;37.74
32875;BME280;40468;42.128;24.750;2023-02-18T05:17:53;100334.06;;;8.63;37.73
32875;BME280;40468;42.128;24.750;2023-02-18T05:19:25;100334.03;;;8.64;37.75
32875;BME280;40468;42.128;24.750;2023-02-18T05:20:56;100333.13;;;8.65;37.69
32875;BME280;40468;42.128;24.750;2023-02-18T05:22:27;100330.50;;;8.67;37.70
32875;BME280;40468;42.128;24.750;2023-02-18T05:23:59;100333.94;;;8.68;37.74
32875;BME280;40468;42.128;24.750;2023-02-18T05:25:31;100328.66;;;8.71;37.55
32875;BME280;40468;42.128;24.750;2023-02-18T05:27:04;100333.78;;;8.72;37.45
32875;BME280;40468;42.128;24.750;2023-02-18T05:28:35;100323.41;;;8.72;37.69
32875;BME280;40468;42.128;24.750;2023-02-18T05:30:07;100329.50;;;8.71;37.67
32875;BME280;40468;42.128;24.750;2023-02-18T05:31:39;100331.19;;;8.72;37.39
32875;BME280;40468;42.128;24.750;2023-02-18T05:33:11;100322.53;;;8.73;37.42
32875;BME280;40468;42.128;24.750;2023-02-18T05:34:43;100320.72;;;8.75;37.45
32875;BME280;40468;42.128;24.750;2023-02-18T05:36:14;100320.63;;;8.78;37.44
32875;BME280;40468;42.128;24.750;2023-02-18T05:37:45;100318.00;;;8.80;37.50
32875;BME280;40468;42.128;24.750;2023-02-18T05:39:17;100318.00;;;8.80;37.23
32875;BME280;40468;42.128;24.750;2023-02-18T05:40:48;100311.88;;;8.82;37.23
32875;BME280;40468;42.128;24.750;2023-02-18T05:42:20;100309.19;;;8.85;37.20
32875;BME280;40468;42.128;24.750;2023-02-18T05:43:52;100312.59;;;8.87;37.15
32875;BME280;40468;42.128;24.750;2023-02-18T05:45:41;100313.44;;;8.88;37.23
32875;BME280;40468;42.128;24.750;2023-02-18T05:47:13;100314.28;;;8.88;37.16
32875;BME280;40468;42.128;24.750;2023-02-18T05:48:44;100315.03;;;8.92;37.14
32875;BME280;40468;42.128;24.750;2023-02-18T05:50:16;100313.28;;;8.93;37.21
32875;BME280;40468;42.128;24.750;2023-02-18T05:51:48;100321.91;;;8.93;37.18
32875;BME280;40468;42.128;24.750;2023-02-18T05:53:18;100326.28;;;8.93;37.37
32875;BME280;40468;42.128;24.750;2023-02-18T05:54:51;100316.69;;;8.95;37.28
32875;BME280;40468;42.128;24.750;2023-02-18T05:56:22;100319.19;;;8.98;37.37
32875;BME280;40468;42.128;24.750;2023-02-18T05:57:57;100321.75;;;8.99;37.15
32875;BME280;40468;42.128;24.750;2023-02-18T05:59:29;100313.97;;;8.99;37.23
32875;BME280;40468;42.128;24.750;2023-02-18T06:01:01;100319.94;;;9.01;37.25
32875;BME280;40468;42.128;24.750;2023-02-18T06:02:33;100321.59;;;9.04;37.03
32875;BME280;40468;42.128;24.750;2023-02-18T06:04:03;100326.72;;;9.07;37.04
32875;BME280;40468;42.128;24.750;2023-02-18T06:05:35;100324.00;;;9.10;37.13
32875;BME280;40468;42.128;24.750;2023-02-18T06:07:07;100322.22;;;9.12;37.18
32875;BME280;40468;42.128;24.750;2023-02-18T06:08:38;100317.84;;;9.14;37.15
32875;BME280;40468;42.128;24.750;2023-02-18T06:10:09;100321.22;;;9.16;37.25
32875;BME280;40468;42.128;24.750;2023-02-18T06:11:42;100320.25;;;9.20;36.85
32875;BME280;40468;42.128;24.750;2023-02-18T06:13:14;100320.19;;;9.22;36.98
32875;BME280;40468;42.128;24.750;2023-02-18T06:14:46;100314.91;;;9.25;36.81
32875;BME280;40468;42.128;24.750;2023-02-18T06:16:17;100319.16;;;9.27;36.93
32875;BME280;40468;42.128;24.750;2023-02-18T06:17:49;100319.06;;;9.30;36.74
32875;BME280;40468;42.128;24.750;2023-02-18T06:19:21;100310.31;;;9.33;36.73
32875;BME280;40468;42.128;24.750;2023-02-18T06:20:53;100329.31;;;9.35;36.67
32875;BME280;40468;42.128;24.750;2023-02-18T06:22:24;100314.50;;;9.37;36.70
32875;BME280;40468;42.128;24.750;2023-02-18T06:23:56;100308.34;;;9.40;36.49
32875;BME280;40468;42.128;24.750;2023-02-18T06:25:27;100321.22;;;9.44;36.63
32875;BME280;40468;42.128;24.750;2023-02-18T06:26:59;100319.38;;;9.48;36.53
32875;BME280;40468;42.128;24.750;2023-02-18T06:28:32;100318.34;;;9.52;36.35
32875;BME280;40468;42.128;24.750;2023-02-18T06:30:03;100305.25;;;9.55;36.50
32875;BME280;40468;42.128;24.750;2023-02-18T06:31:35;100307.66;;;9.61;36.40
32875;BME280;40468;42.128;24.750;2023-02-18T06:33:06;100314.41;;;9.67;36.38
32875;BME280;40468;42.128;24.750;2023-02-18T06:34:38;100314.25;;;9.71;36.10
32875;BME280;40468;42.128;24.750;2023-02-18T06:36:10;100308.03;;;9.75;36.25
32875;BME280;40468;42.128;24.750;2023-02-18T06:37:42;100315.63;;;9.82;36.18
32875;BME280;40468;42.128;24.750;2023-02-18T06:39:14;100325.06;;;9.86;36.04
32875;BME280;40468;42.128;24.750;2023-02-18T06:40:45;100328.44;;;9.88;36.01
32875;BME280;40468;42.128;24.750;2023-02-18T06:42:16;100320.53;;;9.91;35.77
32875;BME280;40468;42.128;24.750;2023-02-18T06:43:49;100323.91;;;9.94;35.77
32875;BME280;40468;42.128;24.750;2023-02-18T06:45:21;100316.84;;;9.98;35.94
32875;BME280;40468;42.128;24.750;2023-02-18T06:46:53;100325.34;;;10.03;35.70
32875;BME280;40468;42.128;24.750;2023-02-18T06:48:24;100317.41;;;10.06;35.58
32875;BME280;40468;42.128;24.750;2023-02-18T06:49:55;100319.81;;;10.12;35.46
32875;BME280;40468;42.128;24.750;2023-02-18T06:51:27;100301.25;;;10.21;35.64
32875;BME280;40468;42.128;24.750;2023-02-18T06:52:57;100295.69;;;10.32;35.52
32875;BME280;40468;42.128;24.750;2023-02-18T06:54:29;100294.47;;;10.42;35.67
32875;BME280;40468;42.128;24.750;2023-02-18T06:56:01;100295.88;;;10.51;35.48
32875;BME280;40468;42.128;24.750;2023-02-18T06:57:33;100292.00;;;10.61;35.04
32875;BME280;40468;42.128;24.750;2023-02-18T06:59:06;100277.75;;;10.72;34.93
32875;BME280;40468;42.128;24.750;2023-02-18T07:00:39;100280.00;;;10.81;34.88
32875;BME280;40468;42.128;24.750;2023-02-18T07:02:11;100272.63;;;10.92;34.70
32875;BME280;40468;42.128;24.750;2023-02-18T07:03:43;100274.78;;;11.03;34.64
32875;BME280;40468;42.128;24.750;2023-02-18T07:05:18;100265.75;;;11.11;34.31
32875;BME280;40468;42.128;24.750;2023-02-18T07:06:50;100274.81;;;11.25;34.35
32875;BME280;40468;42.128;24.750;2023-02-18T07:08:21;100277.88;;;11.34;34.47
32875;BME280;40468;42.128;24.750;2023-02-18T07:09:53;100271.19;;;11.49;34.52
32875;BME280;40468;42.128;24.750;2023-02-18T07:11:25;100274.88;;;11.66;34.21
32875;BME280;40468;42.128;24.750;2023-02-18T07:12:56;100275.66;;;11.88;34.03
32875;BME280;40468;42.128;24.750;2023-02-18T07:14:29;100287.31;;;12.20;34.02
32875;BME280;40468;42.128;24.750;2023-02-18T07:16:01;100284.06;;;12.55;33.85
32875;BME280;40468;42.128;24.750;2023-02-18T07:17:33;100293.03;;;12.87;33.61
32875;BME280;40468;42.128;24.750;2023-02-18T07:19:04;100279.41;;;13.16;33.50
32875;BME280;40468;42.128;24.750;2023-02-18T07:20:36;100269.88;;;13.52;33.00
32875;BME280;40468;42.128;24.750;2023-02-18T07:22:08;100261.16;;;13.69;32.57
32875;BME280;40468;42.128;24.750;2023-02-18T07:23:39;100269.25;;;13.81;32.06
32875;BME280;40468;42.128;24.750;2023-02-18T07:25:11;100259.78;;;13.96;31.75
32875;BME280;40468;42.128;24.750;2023-02-18T07:26:43;100271.97;;;14.13;31.41
32875;BME280;40468;42.128;24.750;2023-02-18T07:28:14;100270.84;;;14.34;31.19
32875;BME280;40468;42.128;24.750;2023-02-18T07:29:48;100266.44;;;14.52;31.03
32875;BME280;40468;42.128;24.750;2023-02-18T07:31:19;100269.22;;;14.65;30.26
32875;BME280;40468;42.128;24.750;2023-02-18T07:32:51;100266.41;;;14.84;30.54
32875;BME280;40468;42.128;24.750;2023-02-18T07:34:23;100272.53;;;15.00;30.24
32875;BME280;40468;42.128;24.750;2023-02-18T07:35:54;100263.19;;;15.11;29.90
32875;BME280;40468;42.128;24.750;2023-02-18T07:37:26;100253.34;;;15.14;29.72
32875;BME280;40468;42.128;24.750;2023-02-18T07:38:57;100243.03;;;15.11;29.42
32875;BME280;40468;42.128;24.750;2023-02-18T07:40:28;100239.03;;;15.06;29.55
32875;BME280;40468;42.128;24.750;2023-02-18T07:42:01;100238.56;;;15.13;29.83
32875;BME280;40468;42.128;24.750;2023-02-18T07:43:32;100224.53;;;14.98;29.31
32875;BME280;40468;42.128;24.750;2023-02-18T07:45:06;100228.22;;;14.80;29.42
32875;BME280;40468;42.128;24.750;2023-02-18T07:46:38;100234.38;;;14.63;29.45
32875;BME280;40468;42.128;24.750;2023-02-18T07:48:10;100238.44;;;14.53;29.60
32875;BME280;40468;42.128;24.750;2023-02-18T07:49:42;100237.63;;;14.51;29.83
32875;BME280;40468;42.128;24.750;2023-02-18T07:51:13;100235.97;;;14.50;29.82
32875;BME280;40468;42.128;24.750;2023-02-18T07:52:45;100230.28;;;14.42;29.98
32875;BME280;40468;42.128;24.750;2023-02-18T07:54:16;100234.41;;;14.30;29.78
32875;BME280;40468;42.128;24.750;2023-02-18T07:55:48;100230.78;;;14.32;30.11
32875;BME280;40468;42.128;24.750;2023-02-18T07:57:20;100225.16;;;14.56;29.86
32875;BME280;40468;42.128;24.750;2023-02-18T07:58:52;100223.38;;;14.72;29.76
32875;BME280;40468;42.128;24.750;2023-02-18T08:00:24;100224.56;;;14.83;29.60
32875;BME280;40468;42.128;24.750;2023-02-18T08:01:56;100228.09;;;14.97;29.66
32875;BME280;40468;42.128;24.750;2023-02-18T08:03:29;100221.38;;;15.23;29.51
32875;BME280;40468;42.128;24.750;2023-02-18T08:05:01;100221.06;;;15.74;29.46
32875;BME280;40468;42.128;24.750;2023-02-18T08:06:33;100225.47;;;16.17;28.54
32875;BME280;40468;42.128;24.750;2023-02-18T08:08:05;100224.88;;;16.54;28.23
32875;BME280;40468;42.128;24.750;2023-02-18T08:09:37;100218.59;;;16.98;27.96
32875;BME280;40468;42.128;24.750;2023-02-18T08:11:09;100213.84;;;17.43;27.81